sensor_id;sensor_type;location;lat;lon;timestamp;temperature;humidity
17333;DHT22;8784;50.94667800;7.08448400;2024-02-15T00:04:28;12.80;99.90
17333;DHT22;8784;50.94667800;7.08448400;2024-02-15T00:06:55;12.80;99.90
17333;DHT22;8784;50.94667800;7.08448400;2024-02-15T00:09:21;12.80;99.90
17333;DHT22;8784;50.94667800;7.08448400;2024-02-15T00:11:48;12.80;99.90
17333;DHT22;8784;50.94667800;7.08448400;2024-02-15T00:14:17;12.80;99.90
17333;DHT22;8784;50.94667800;7.08448400;2024-02-15T00:16:45;12.80;99.90
17333;DHT22;8784;50.94667800;7.08448400;2024-02-15T00:19:12;12.80;99.90
17333;DHT22;8784;50.94667800;7.08448400;2024-02-15T00:21:43;12.80;99.90
17333;DHT22;8784;50.94667800;7.08448400;2024-02-15T00:24:10;12.80;99.90
17333;DHT22;8784;50.94667800;7.08448400;2024-02-15T00:26:37;12.80;99.90
17333;DHT22;8784;50.94667800;7.08448400;2024-02-15T00:29:04;12.80;99.90
17333;DHT22;8784;50.94667800;7.08448400;2024-02-15T00:31:32;12.80;99.90
17333;DHT22;8784;50.94667800;7.08448400;2024-02-15T00:33:59;12.80;99.90
17333;DHT22;8784;50.94667800;7.08448400;2024-02-15T00:36:28;12.80;99.90
17333;DHT22;8784;50.94667800;7.08448400;2024-02-15T00:38:55;12.80;99.90
17333;DHT22;8784;50.94667800;7.08448400;2024-02-15T00:41:22;12.80;99.90
17333;DHT22;8784;50.94667800;7.08448400;2024-02-15T00:43:49;12.80;99.90
17333;DHT22;8784;50.94667800;7.08448400;2024-02-15T00:46:17;12.80;99.90
17333;DHT22;8784;50.94667800;7.08448400;2024-02-15T00:48:46;12.80;99.90
17333;DHT22;8784;50.94667800;7.08448400;2024-02-15T00:51:13;12.80;99.90
17333;DHT22;8784;50.94667800;7.08448400;2024-02-15T00:53:40;12.80;99.90
17333;DHT22;8784;50.94667800;7.08448400;2024-02-15T00:56:07;12.80;99.90
17333;DHT22;8784;50.94667800;7.08448400;2024-02-15T00:58:34;12.80;99.90
17333;DHT22;8784;50.94667800;7.08448400;2024-02-15T01:01:01;12.80;99.90
17333;DHT22;8784;50.94667800;7.08448400;2024-02-15T01:03:28;12.80;99.90
17333;DHT22;8784;50.94667800;7.08448400;2024-02-15T01:05:59;12.80;99.90
17333;DHT22;8784;50.94667800;7.08448400;2024-02-15T01:08:26;12.90;99.90
17333;DHT22;8784;50.94667800;7.08448400;2024-02-15T01:10:53;12.80;99.90
17333;DHT22;8784;50.94667800;7.08448400;2024-02-15T01:13:20;12.80;99.90
17333;DHT22;8784;50.94667800;7.08448400;2024-02-15T01:15:47;12.80;99.90
17333;DHT22;8784;50.94667800;7.08448400;2024-02-15T01:18:14;12.90;99.90
17333;DHT22;8784;50.94667800;7.08448400;2024-02-15T01:20:41;12.80;99.90
17333;DHT22;8784;50.94667800;7.08448400;2024-02-15T01:23:09;12.80;99.90
17333;DHT22;8784;50.94667800;7.08448400;2024-02-15T01:25:38;12.80;99.90
17333;DHT22;8784;50.94667800;7.08448400;2024-02-15T01:28:06;12.80;99.90
17333;DHT22;8784;50.94667800;7.08448400;2024-02-15T01:30:33;12.80;99.90
17333;DHT22;8784;50.94667800;7.08448400;2024-02-15T01:33:00;12.80;99.90
17333;DHT22;8784;50.94667800;7.08448400;2024-02-15T01:35:27;12.80;99.90
17333;DHT22;8784;50.94667800;7.08448400;2024-02-15T01:37:54;12.80;99.90
17333;DHT22;8784;50.94667800;7.08448400;2024-02-15T01:40:22;12.80;99.90
17333;DHT22;8784;50.94667800;7.08448400;2024-02-15T01:42:50;12.80;99.90
17333;DHT22;8784;50.94667800;7.08448400;2024-02-15T01:45:17;12.80;99.90
17333;DHT22;8784;50.94667800;7.08448400;2024-02-15T01:47:45;12.80;99.90
17333;DHT22;8784;50.94667800;7.08448400;2024-02-15T01:50:13;12.80;99.90
17333;DHT22;8784;50.94667800;7.08448400;2024-02-15T01:52:41;12.90;99.90
17333;DHT22;8784;50.94667800;7.08448400;2024-02-15T01:55:10;12.90;99.90
17333;DHT22;8784;50.94667800;7.08448400;2024-02-15T01:57:38;12.90;99.90
17333;DHT22;8784;50.94667800;7.08448400;2024-02-15T02:00:06;12.90;99.90
17333;DHT22;8784;50.94667800;7.08448400;2024-02-15T02:02:35;12.90;99.90
17333;DHT22;8784;50.94667800;7.08448400;2024-02-15T02:05:04;12.90;99.90
17333;DHT22;8784;50.94667800;7.08448400;2024-02-15T02:07:32;12.90;99.90
17333;DHT22;8784;50.94667800;7.08448400;2024-02-15T02:09:59;12.90;99.90
17333;DHT22;8784;50.94667800;7.08448400;2024-02-15T02:12:26;12.80;99.90
17333;DHT22;8784;50.94667800;7.08448400;2024-02-15T02:14:58;12.90;99.90
17333;DHT22;8784;50.94667800;7.08448400;2024-02-15T02:17:24;12.80;99.90
17333;DHT22;8784;50.94667800;7.08448400;2024-02-15T02:19:51;12.80;99.90
17333;DHT22;8784;50.94667800;7.08448400;2024-02-15T02:22:19;12.80;99.90
17333;DHT22;8784;50.94667800;7.08448400;2024-02-15T02:25:02;12.70;99.90
17333;DHT22;8784;50.94667800;7.08448400;2024-02-15T02:27:32;12.70;99.90
17333;DHT22;8784;50.94667800;7.08448400;2024-02-15T02:29:59;12.70;99.90
17333;DHT22;8784;50.94667800;7.08448400;2024-02-15T02:32:26;12.70;99.90
17333;DHT22;8784;50.94667800;7.08448400;2024-02-15T02:34:53;12.70;99.90
17333;DHT22;8784;50.94667800;7.08448400;2024-02-15T02:37:22;12.70;99.90
17333;DHT22;8784;50.94667800;7.08448400;2024-02-15T02:39:49;12.80;99.90
17333;DHT22;8784;50.94667800;7.08448400;2024-02-15T02:42:19;12.70;99.90
17333;DHT22;8784;50.94667800;7.08448400;2024-02-15T02:44:46;12.80;99.90
17333;DHT22;8784;50.94667800;7.08448400;2024-02-15T02:47:13;12.80;99.90
17333;DHT22;8784;50.94667800;7.08448400;2024-02-15T02:49:40;12.80;99.90
17333;DHT22;8784;50.94667800;7.08448400;2024-02-15T02:52:07;12.80;99.90
17333;DHT22;8784;50.94667800;7.08448400;2024-02-15T02:54:34;12.80;99.90
17333;DHT22;8784;50.94667800;7.08448400;2024-02-15T02:57:01;12.80;99.90
17333;DHT22;8784;50.94667800;7.08448400;2024-02-15T02:59:34;12.90;99.90
17333;DHT22;8784;50.94667800;7.08448400;2024-02-15T03:02:04;12.90;99.90
17333;DHT22;8784;50.94667800;7.08448400;2024-02-15T03:04:32;12.80;99.90
17333;DHT22;8784;50.94667800;7.08448400;2024-02-15T03:06:59;12.80;99.90
17333;DHT22;8784;50.94667800;7.08448400;2024-02-15T03:09:26;12.80;99.90
17333;DHT22;8784;50.94667800;7.08448400;2024-02-15T03:11:54;12.80;99.90
17333;DHT22;8784;50.94667800;7.08448400;2024-02-15T03:14:24;12.80;99.90
17333;DHT22;8784;50.94667800;7.08448400;2024-02-15T03:16:54;12.80;99.90
17333;DHT22;8784;50.94667800;7.08448400;2024-02-15T03:19:21;12.80;99.90
17333;DHT22;8784;50.94667800;7.08448400;2024-02-15T03:21:49;12.80;99.90
17333;DHT22;8784;50.94667800;7.08448400;2024-02-15T03:24:18;12.80;99.90
17333;DHT22;8784;50.94667800;7.08448400;2024-02-15T03:26:45;12.80;99.90
17333;DHT22;8784;50.94667800;7.08448400;2024-02-15T03:29:12;12.80;99.90
17333;DHT22;8784;50.94667800;7.08448400;2024-02-15T03:31:39;12.80;99.90
17333;DHT22;8784;50.94667800;7.08448400;2024-02-15T03:34:11;12.80;99.90
17333;DHT22;8784;50.94667800;7.08448400;2024-02-15T03:36:40;12.80;99.90
17333;DHT22;8784;50.94667800;7.08448400;2024-02-15T03:39:07;12.80;99.90
17333;DHT22;8784;50.94667800;7.08448400;2024-02-15T03:41:34;12.80;99.90
17333;DHT22;8784;50.94667800;7.08448400;2024-02-15T03:44:00;12.80;99.90
17333;DHT22;8784;50.94667800;7.08448400;2024-02-15T03:46:28;12.80;99.90
17333;DHT22;8784;50.94667800;7.08448400;2024-02-15T03:48:55;12.80;99.90
17333;DHT22;8784;50.94667800;7.08448400;2024-02-15T03:51:24;12.80;99.90
17333;DHT22;8784;50.94667800;7.08448400;2024-02-15T03:53:51;12.70;99.90
17333;DHT22;8784;50.94667800;7.08448400;2024-02-15T03:56:18;12.70;99.90
17333;DHT22;8784;50.94667800;7.08448400;2024-02-15T03:58:46;12.70;99.90
17333;DHT22;8784;50.94667800;7.08448400;2024-02-15T04:01:15;12.80;99.90
17333;DHT22;8784;50.94667800;7.08448400;2024-02-15T04:03:42;12.70;99.90
17333;DHT22;8784;50.94667800;7.08448400;2024-02-15T04:06:08;12.70;99.90
17333;DHT22;8784;50.94667800;7.08448400;2024-02-15T04:08:38;12.70;99.90
17333;DHT22;8784;50.94667800;7.08448400;2024-02-15T04:11:05;12.80;99.90
17333;DHT22;8784;50.94667800;7.08448400;2024-02-15T04:13:34;12.70;99.90
17333;DHT22;8784;50.94667800;7.08448400;2024-02-15T04:16:01;12.80;99.90
17333;DHT22;8784;50.94667800;7.08448400;2024-02-15T04:18:30;12.80;99.90
17333;DHT22;8784;50.94667800;7.08448400;2024-02-15T04:20:58;12.80;99.90
17333;DHT22;8784;50.94667800;7.08448400;2024-02-15T04:23:25;12.80;99.90
17333;DHT22;8784;50.94667800;7.08448400;2024-02-15T04:25:53;12.70;99.90
17333;DHT22;8784;50.94667800;7.08448400;2024-02-15T04:28:20;12.80;99.90
17333;DHT22;8784;50.94667800;7.08448400;2024-02-15T04:30:47;12.80;99.90
17333;DHT22;8784;50.94667800;7.08448400;2024-02-15T04:33:17;12.70;99.90
17333;DHT22;8784;50.94667800;7.08448400;2024-02-15T04:35:44;12.70;99.90
17333;DHT22;8784;50.94667800;7.08448400;2024-02-15T04:38:10;12.80;99.90
17333;DHT22;8784;50.94667800;7.08448400;2024-02-15T04:40:37;12.80;99.90
17333;DHT22;8784;50.94667800;7.08448400;2024-02-15T04:43:06;12.80;99.90
17333;DHT22;8784;50.94667800;7.08448400;2024-02-15T04:45:34;12.80;99.90
17333;DHT22;8784;50.94667800;7.08448400;2024-02-15T04:48:01;12.80;99.90
17333;DHT22;8784;50.94667800;7.08448400;2024-02-15T04:50:31;12.80;99.90
17333;DHT22;8784;50.94667800;7.08448400;2024-02-15T04:52:58;12.80;99.90
17333;DHT22;8784;50.94667800;7.08448400;2024-02-15T04:55:25;12.80;99.90
17333;DHT22;8784;50.94667800;7.08448400;2024-02-15T04:57:52;12.80;99.90
17333;DHT22;8784;50.94667800;7.08448400;2024-02-15T05:00:23;12.80;99.90
17333;DHT22;8784;50.94667800;7.08448400;2024-02-15T05:02:52;12.80;99.90
17333;DHT22;8784;50.94667800;7.08448400;2024-02-15T05:07:47;12.90;99.90
17333;DHT22;8784;50.94667800;7.08448400;2024-02-15T05:10:16;12.90;99.90
17333;DHT22;8784;50.94667800;7.08448400;2024-02-15T05:12:43;12.90;99.90
17333;DHT22;8784;50.94667800;7.08448400;2024-02-15T05:15:10;12.90;99.90
17333;DHT22;8784;50.94667800;7.08448400;2024-02-15T05:17:39;12.90;99.90
17333;DHT22;8784;50.94667800;7.08448400;2024-02-15T05:20:10;12.90;99.90
17333;DHT22;8784;50.94667800;7.08448400;2024-02-15T05:22:38;12.90;99.90
17333;DHT22;8784;50.94667800;7.08448400;2024-02-15T05:25:09;12.90;99.90
17333;DHT22;8784;50.94667800;7.08448400;2024-02-15T05:27:38;13.00;99.90
17333;DHT22;8784;50.94667800;7.08448400;2024-02-15T05:30:05;13.00;99.90
17333;DHT22;8784;50.94667800;7.08448400;2024-02-15T05:32:33;13.00;99.90
17333;DHT22;8784;50.94667800;7.08448400;2024-02-15T05:35:08;13.00;99.90
17333;DHT22;8784;50.94667800;7.08448400;2024-02-15T05:37:35;13.00;99.90
17333;DHT22;8784;50.94667800;7.08448400;2024-02-15T05:40:03;13.00;99.90
17333;DHT22;8784;50.94667800;7.08448400;2024-02-15T05:42:30;13.00;99.90
17333;DHT22;8784;50.94667800;7.08448400;2024-02-15T05:45:27;13.00;99.90
17333;DHT22;8784;50.94667800;7.08448400;2024-02-15T05:47:58;13.00;99.90
17333;DHT22;8784;50.94667800;7.08448400;2024-02-15T05:50:27;13.00;99.90
17333;DHT22;8784;50.94667800;7.08448400;2024-02-15T05:52:55;13.00;99.90
17333;DHT22;8784;50.94667800;7.08448400;2024-02-15T05:55:24;13.00;99.90
17333;DHT22;8784;50.94667800;7.08448400;2024-02-15T05:57:52;13.00;99.90
17333;DHT22;8784;50.94667800;7.08448400;2024-02-15T06:00:19;13.00;99.90
17333;DHT22;8784;50.94667800;7.08448400;2024-02-15T06:02:46;13.00;99.90
17333;DHT22;8784;50.94667800;7.08448400;2024-02-15T06:05:14;13.00;99.90
17333;DHT22;8784;50.94667800;7.08448400;2024-02-15T06:07:43;13.00;99.90
17333;DHT22;8784;50.94667800;7.08448400;2024-02-15T06:10:11;12.90;99.90
17333;DHT22;8784;50.94667800;7.08448400;2024-02-15T06:12:39;12.80;99.90
17333;DHT22;8784;50.94667800;7.08448400;2024-02-15T06:15:06;12.80;99.90
17333;DHT22;8784;50.94667800;7.08448400;2024-02-15T06:17:40;12.80;99.90
17333;DHT22;8784;50.94667800;7.08448400;2024-02-15T06:20:11;12.80;99.90
17333;DHT22;8784;50.94667800;7.08448400;2024-02-15T06:22:40;12.70;99.90
17333;DHT22;8784;50.94667800;7.08448400;2024-02-15T06:25:08;12.70;99.90
17333;DHT22;8784;50.94667800;7.08448400;2024-02-15T06:27:36;12.70;99.90
17333;DHT22;8784;50.94667800;7.08448400;2024-02-15T06:30:07;12.70;99.90
17333;DHT22;8784;50.94667800;7.08448400;2024-02-15T06:32:52;12.60;99.90
17333;DHT22;8784;50.94667800;7.08448400;2024-02-15T06:35:37;12.70;99.90
17333;DHT22;8784;50.94667800;7.08448400;2024-02-15T06:38:21;12.70;99.90
17333;DHT22;8784;50.94667800;7.08448400;2024-02-15T06:41:07;12.80;99.90
17333;DHT22;8784;50.94667800;7.08448400;2024-02-15T06:43:34;12.80;99.90
17333;DHT22;8784;50.94667800;7.08448400;2024-02-15T06:46:06;12.80;99.90
17333;DHT22;8784;50.94667800;7.08448400;2024-02-15T06:48:34;12.80;99.90
17333;DHT22;8784;50.94667800;7.08448400;2024-02-15T06:51:02;12.80;99.90
17333;DHT22;8784;50.94667800;7.08448400;2024-02-15T06:53:30;12.90;99.90
17333;DHT22;8784;50.94667800;7.08448400;2024-02-15T06:55:57;12.90;99.90
17333;DHT22;8784;50.94667800;7.08448400;2024-02-15T06:58:25;12.90;99.90
17333;DHT22;8784;50.94667800;7.08448400;2024-02-15T07:00:52;12.80;99.90
17333;DHT22;8784;50.94667800;7.08448400;2024-02-15T07:03:20;12.80;99.90
17333;DHT22;8784;50.94667800;7.08448400;2024-02-15T07:05:48;12.80;99.90
17333;DHT22;8784;50.94667800;7.08448400;2024-02-15T07:08:15;12.70;99.90
17333;DHT22;8784;50.94667800;7.08448400;2024-02-15T07:10:42;12.70;99.90
17333;DHT22;8784;50.94667800;7.08448400;2024-02-15T07:13:09;12.70;99.90
17333;DHT22;8784;50.94667800;7.08448400;2024-02-15T07:15:38;12.70;99.90
17333;DHT22;8784;50.94667800;7.08448400;2024-02-15T07:18:05;12.70;99.90
17333;DHT22;8784;50.94667800;7.08448400;2024-02-15T07:20:33;12.60;99.90
17333;DHT22;8784;50.94667800;7.08448400;2024-02-15T07:23:00;12.70;99.90
17333;DHT22;8784;50.94667800;7.08448400;2024-02-15T07:25:27;12.60;99.90
17333;DHT22;8784;50.94667800;7.08448400;2024-02-15T07:27:54;12.60;99.90
17333;DHT22;8784;50.94667800;7.08448400;2024-02-15T07:30:22;12.60;99.90
17333;DHT22;8784;50.94667800;7.08448400;2024-02-15T07:32:50;12.60;99.90
17333;DHT22;8784;50.94667800;7.08448400;2024-02-15T07:35:18;12.60;99.90
17333;DHT22;8784;50.94667800;7.08448400;2024-02-15T07:37:55;12.60;99.90
17333;DHT22;8784;50.94667800;7.08448400;2024-02-15T07:40:24;12.60;99.90
17333;DHT22;8784;50.94667800;7.08448400;2024-02-15T07:42:56;12.60;99.90
17333;DHT22;8784;50.94667800;7.08448400;2024-02-15T07:45:22;12.60;99.90
17333;DHT22;8784;50.94667800;7.08448400;2024-02-15T07:47:51;12.60;99.90
17333;DHT22;8784;50.94667800;7.08448400;2024-02-15T07:50:19;12.60;99.90
17333;DHT22;8784;50.94667800;7.08448400;2024-02-15T07:52:49;12.70;99.90
17333;DHT22;8784;50.94667800;7.08448400;2024-02-15T07:55:19;12.60;99.90
17333;DHT22;8784;50.94667800;7.08448400;2024-02-15T07:57:50;12.60;99.90
17333;DHT22;8784;50.94667800;7.08448400;2024-02-15T08:00:18;12.60;99.90
17333;DHT22;8784;50.94667800;7.08448400;2024-02-15T08:02:46;12.60;99.90
17333;DHT22;8784;50.94667800;7.08448400;2024-02-15T08:05:14;12.60;99.90
17333;DHT22;8784;50.94667800;7.08448400;2024-02-15T08:07:43;12.60;99.90
17333;DHT22;8784;50.94667800;7.08448400;2024-02-15T08:10:11;12.60;99.90
17333;DHT22;8784;50.94667800;7.08448400;2024-02-15T08:12:40;12.60;99.90
17333;DHT22;8784;50.94667800;7.08448400;2024-02-15T08:15:10;12.60;99.90
17333;DHT22;8784;50.94667800;7.08448400;2024-02-15T08:17:39;12.60;99.90
17333;DHT22;8784;50.94667800;7.08448400;2024-02-15T08:20:08;12.60;99.90
17333;DHT22;8784;50.94667800;7.08448400;2024-02-15T08:22:38;12.60;99.90
17333;DHT22;8784;50.94667800;7.08448400;2024-02-15T08:25:08;12.60;99.90
17333;DHT22;8784;50.94667800;7.08448400;2024-02-15T08:27:37;12.60;99.90
17333;DHT22;8784;50.94667800;7.08448400;2024-02-15T08:30:09;12.50;99.90
17333;DHT22;8784;50.94667800;7.08448400;2024-02-15T08:32:40;12.50;99.90
17333;DHT22;8784;50.94667800;7.08448400;2024-02-15T08:35:08;12.40;99.90
17333;DHT22;8784;50.94667800;7.08448400;2024-02-15T08:37:37;12.40;99.90
17333;DHT22;8784;50.94667800;7.08448400;2024-02-15T08:40:07;12.40;99.90
17333;DHT22;8784;50.94667800;7.08448400;2024-02-15T08:42:37;12.40;99.90
17333;DHT22;8784;50.94667800;7.08448400;2024-02-15T08:45:05;12.40;99.90
17333;DHT22;8784;50.94667800;7.08448400;2024-02-15T08:47:36;12.40;99.90
17333;DHT22;8784;50.94667800;7.08448400;2024-02-15T08:50:04;12.40;99.90
17333;DHT22;8784;50.94667800;7.08448400;2024-02-15T08:52:32;12.30;99.90
17333;DHT22;8784;50.94667800;7.08448400;2024-02-15T08:55:00;12.20;99.90
17333;DHT22;8784;50.94667800;7.08448400;2024-02-15T08:57:27;12.30;99.90
17333;DHT22;8784;50.94667800;7.08448400;2024-02-15T08:59:55;12.30;99.90
17333;DHT22;8784;50.94667800;7.08448400;2024-02-15T09:02:30;12.30;99.90
17333;DHT22;8784;50.94667800;7.08448400;2024-02-15T09:04:58;12.30;99.90
17333;DHT22;8784;50.94667800;7.08448400;2024-02-15T09:07:26;12.30;99.90
17333;DHT22;8784;50.94667800;7.08448400;2024-02-15T09:09:53;12.30;99.90
17333;DHT22;8784;50.94667800;7.08448400;2024-02-15T09:12:22;12.30;99.90
17333;DHT22;8784;50.94667800;7.08448400;2024-02-15T09:14:52;12.30;99.90
17333;DHT22;8784;50.94667800;7.08448400;2024-02-15T09:17:19;12.40;99.90
17333;DHT22;8784;50.94667800;7.08448400;2024-02-15T09:19:47;12.50;99.90
17333;DHT22;8784;50.94667800;7.08448400;2024-02-15T09:22:15;12.60;99.90
17333;DHT22;8784;50.94667800;7.08448400;2024-02-15T09:24:43;12.70;99.90
17333;DHT22;8784;50.94667800;7.08448400;2024-02-15T09:27:10;12.70;99.90
17333;DHT22;8784;50.94667800;7.08448400;2024-02-15T09:29:39;12.80;99.90
17333;DHT22;8784;50.94667800;7.08448400;2024-02-15T09:32:08;12.90;99.90
17333;DHT22;8784;50.94667800;7.08448400;2024-02-15T09:34:37;13.00;99.90
17333;DHT22;8784;50.94667800;7.08448400;2024-02-15T09:37:11;13.20;99.90
17333;DHT22;8784;50.94667800;7.08448400;2024-02-15T09:39:40;13.30;99.90
17333;DHT22;8784;50.94667800;7.08448400;2024-02-15T09:42:09;13.40;99.90
17333;DHT22;8784;50.94667800;7.08448400;2024-02-15T09:44:40;13.40;99.90
17333;DHT22;8784;50.94667800;7.08448400;2024-02-15T09:47:12;13.40;99.90
17333;DHT22;8784;50.94667800;7.08448400;2024-02-15T09:49:40;13.30;99.90
17333;DHT22;8784;50.94667800;7.08448400;2024-02-15T09:52:09;13.30;99.90
17333;DHT22;8784;50.94667800;7.08448400;2024-02-15T09:54:40;13.30;99.90
17333;DHT22;8784;50.94667800;7.08448400;2024-02-15T09:57:12;13.40;99.90
17333;DHT22;8784;50.94667800;7.08448400;2024-02-15T09:59:43;13.40;99.90
17333;DHT22;8784;50.94667800;7.08448400;2024-02-15T10:02:13;13.50;99.90
17333;DHT22;8784;50.94667800;7.08448400;2024-02-15T10:04:41;13.50;99.90
17333;DHT22;8784;50.94667800;7.08448400;2024-02-15T10:07:09;13.70;99.90
17333;DHT22;8784;50.94667800;7.08448400;2024-02-15T10:09:36;13.70;99.90
17333;DHT22;8784;50.94667800;7.08448400;2024-02-15T10:12:04;13.90;99.90
17333;DHT22;8784;50.94667800;7.08448400;2024-02-15T10:14:35;14.00;99.90
17333;DHT22;8784;50.94667800;7.08448400;2024-02-15T10:17:08;14.10;99.90
17333;DHT22;8784;50.94667800;7.08448400;2024-02-15T10:19:37;14.20;99.90
17333;DHT22;8784;50.94667800;7.08448400;2024-02-15T10:22:08;14.20;99.90
17333;DHT22;8784;50.94667800;7.08448400;2024-02-15T10:24:35;14.30;99.90
17333;DHT22;8784;50.94667800;7.08448400;2024-02-15T10:27:05;14.40;99.90
17333;DHT22;8784;50.94667800;7.08448400;2024-02-15T10:29:33;14.50;99.90
17333;DHT22;8784;50.94667800;7.08448400;2024-02-15T10:32:01;14.60;99.90
17333;DHT22;8784;50.94667800;7.08448400;2024-02-15T10:34:32;14.60;99.90
17333;DHT22;8784;50.94667800;7.08448400;2024-02-15T10:37:13;14.60;99.90
17333;DHT22;8784;50.94667800;7.08448400;2024-02-15T10:39:42;14.70;99.90
17333;DHT22;8784;50.94667800;7.08448400;2024-02-15T10:42:09;14.70;99.90
17333;DHT22;8784;50.94667800;7.08448400;2024-02-15T10:44:38;14.80;99.90
17333;DHT22;8784;50.94667800;7.08448400;2024-02-15T10:47:09;14.80;99.90
17333;DHT22;8784;50.94667800;7.08448400;2024-02-15T10:49:39;14.90;99.90
17333;DHT22;8784;50.94667800;7.08448400;2024-02-15T10:52:09;14.90;99.90
17333;DHT22;8784;50.94667800;7.08448400;2024-02-15T10:54:47;15.10;99.90
17333;DHT22;8784;50.94667800;7.08448400;2024-02-15T10:57:20;15.20;99.90
17333;DHT22;8784;50.94667800;7.08448400;2024-02-15T10:59:54;15.40;99.90
17333;DHT22;8784;50.94667800;7.08448400;2024-02-15T11:02:29;15.60;99.90
17333;DHT22;8784;50.94667800;7.08448400;2024-02-15T11:05:02;15.70;99.90
17333;DHT22;8784;50.94667800;7.08448400;2024-02-15T11:07:32;15.80;99.90
17333;DHT22;8784;50.94667800;7.08448400;2024-02-15T11:09:59;15.80;99.90
17333;DHT22;8784;50.94667800;7.08448400;2024-02-15T11:12:28;15.80;99.90
17333;DHT22;8784;50.94667800;7.08448400;2024-02-15T11:14:56;15.80;99.90
17333;DHT22;8784;50.94667800;7.08448400;2024-02-15T11:17:47;15.80;99.90
17333;DHT22;8784;50.94667800;7.08448400;2024-02-15T11:20:48;15.80;99.90
17333;DHT22;8784;50.94667800;7.08448400;2024-02-15T11:23:26;15.90;99.90
17333;DHT22;8784;50.94667800;7.08448400;2024-02-15T11:25:53;16.00;99.90
17333;DHT22;8784;50.94667800;7.08448400;2024-02-15T11:28:38;16.10;99.90
17333;DHT22;8784;50.94667800;7.08448400;2024-02-15T11:34:43;16.30;99.90
17333;DHT22;8784;50.94667800;7.08448400;2024-02-15T11:40:13;16.50;99.90
17333;DHT22;8784;50.94667800;7.08448400;2024-02-15T11:42:44;16.60;99.90
17333;DHT22;8784;50.94667800;7.08448400;2024-02-15T11:45:12;16.70;99.90
17333;DHT22;8784;50.94667800;7.08448400;2024-02-15T11:47:41;16.80;99.90
17333;DHT22;8784;50.94667800;7.08448400;2024-02-15T11:50:09;16.80;99.90
17333;DHT22;8784;50.94667800;7.08448400;2024-02-15T11:52:50;16.80;99.90
17333;DHT22;8784;50.94667800;7.08448400;2024-02-15T11:55:21;16.90;99.90
17333;DHT22;8784;50.94667800;7.08448400;2024-02-15T11:57:55;16.90;99.90
17333;DHT22;8784;50.94667800;7.08448400;2024-02-15T12:00:28;16.90;99.90
17333;DHT22;8784;50.94667800;7.08448400;2024-02-15T12:03:19;17.00;99.90
17333;DHT22;8784;50.94667800;7.08448400;2024-02-15T12:06:06;17.00;99.90
17333;DHT22;8784;50.94667800;7.08448400;2024-02-15T12:08:52;17.00;99.90
17333;DHT22;8784;50.94667800;7.08448400;2024-02-15T12:11:38;17.10;99.90
17333;DHT22;8784;50.94667800;7.08448400;2024-02-15T12:14:23;17.10;99.90
17333;DHT22;8784;50.94667800;7.08448400;2024-02-15T12:17:08;17.20;99.90
17333;DHT22;8784;50.94667800;7.08448400;2024-02-15T12:19:56;17.30;99.90
17333;DHT22;8784;50.94667800;7.08448400;2024-02-15T12:22:27;17.40;99.90
17333;DHT22;8784;50.94667800;7.08448400;2024-02-15T12:24:56;17.50;99.90
17333;DHT22;8784;50.94667800;7.08448400;2024-02-15T12:27:25;17.50;99.90
17333;DHT22;8784;50.94667800;7.08448400;2024-02-15T12:29:54;17.50;99.90
17333;DHT22;8784;50.94667800;7.08448400;2024-02-15T12:32:22;17.50;99.90
17333;DHT22;8784;50.94667800;7.08448400;2024-02-15T12:34:50;17.50;99.90
17333;DHT22;8784;50.94667800;7.08448400;2024-02-15T12:37:18;17.50;99.90
17333;DHT22;8784;50.94667800;7.08448400;2024-02-15T12:39:46;17.50;99.90
17333;DHT22;8784;50.94667800;7.08448400;2024-02-15T12:42:14;17.40;99.90
17333;DHT22;8784;50.94667800;7.08448400;2024-02-15T12:44:45;17.50;99.90
17333;DHT22;8784;50.94667800;7.08448400;2024-02-15T12:47:20;17.50;99.90
17333;DHT22;8784;50.94667800;7.08448400;2024-02-15T12:49:50;17.50;99.90
17333;DHT22;8784;50.94667800;7.08448400;2024-02-15T12:52:34;17.50;99.90
17333;DHT22;8784;50.94667800;7.08448400;2024-02-15T12:55:14;17.50;99.90
17333;DHT22;8784;50.94667800;7.08448400;2024-02-15T12:57:43;17.50;99.90
17333;DHT22;8784;50.94667800;7.08448400;2024-02-15T13:00:17;17.50;99.90
17333;DHT22;8784;50.94667800;7.08448400;2024-02-15T13:02:45;17.60;99.90
17333;DHT22;8784;50.94667800;7.08448400;2024-02-15T13:05:15;17.60;99.90
17333;DHT22;8784;50.94667800;7.08448400;2024-02-15T13:07:46;17.60;99.90
17333;DHT22;8784;50.94667800;7.08448400;2024-02-15T13:10:13;17.60;99.90
17333;DHT22;8784;50.94667800;7.08448400;2024-02-15T13:12:41;17.60;99.90
17333;DHT22;8784;50.94667800;7.08448400;2024-02-15T13:15:10;17.60;99.90
17333;DHT22;8784;50.94667800;7.08448400;2024-02-15T13:17:47;17.60;99.90
17333;DHT22;8784;50.94667800;7.08448400;2024-02-15T13:20:18;17.50;99.90
17333;DHT22;8784;50.94667800;7.08448400;2024-02-15T13:23:02;17.50;99.90
17333;DHT22;8784;50.94667800;7.08448400;2024-02-15T13:25:42;17.50;99.90
17333;DHT22;8784;50.94667800;7.08448400;2024-02-15T13:28:12;17.50;99.90
17333;DHT22;8784;50.94667800;7.08448400;2024-02-15T13:30:39;17.50;99.90
17333;DHT22;8784;50.94667800;7.08448400;2024-02-15T13:33:08;17.40;99.90
17333;DHT22;8784;50.94667800;7.08448400;2024-02-15T13:35:35;17.40;99.90
17333;DHT22;8784;50.94667800;7.08448400;2024-02-15T13:38:06;17.30;99.90
17333;DHT22;8784;50.94667800;7.08448400;2024-02-15T13:40:40;17.30;99.90
17333;DHT22;8784;50.94667800;7.08448400;2024-02-15T13:43:10;17.30;99.90
17333;DHT22;8784;50.94667800;7.08448400;2024-02-15T13:45:46;17.20;99.90
17333;DHT22;8784;50.94667800;7.08448400;2024-02-15T13:48:18;17.10;99.90
17333;DHT22;8784;50.94667800;7.08448400;2024-02-15T13:50:45;17.10;99.90
17333;DHT22;8784;50.94667800;7.08448400;2024-02-15T13:53:12;17.00;99.90
17333;DHT22;8784;50.94667800;7.08448400;2024-02-15T13:55:39;17.00;99.90
17333;DHT22;8784;50.94667800;7.08448400;2024-02-15T13:58:09;17.10;99.90
17333;DHT22;8784;50.94667800;7.08448400;2024-02-15T14:00:38;17.10;99.90